Latest Weather Observations for Point Fawcett

IDD60901

Issued at 7:41 pm CST Thursday 18 July 2024 (issued every 10 minutes, with the page automatically refreshed every 10 minutes)

About weather observations | Map of Darwin area stations | Latest observations for Darwin area | Other Formats
Station Details ID: 200731 Name: POINT FAWCETT Lat: -11.76 Lon: 130.03 Height: 6.5 m
Data from the previous 72 hours. | See also: Recent months at Point Fawcett
Date/Time
CST
Temp
°C
App
Temp
°C
Dew
Point
°C
Rel
Hum
%
Delta-T
°C
Wind Press
QNH
hPa
Press
MSL
hPa
Rain since
9am
mm
Dir  Spd
km/h
Gust
km/h
Spd
kts
Gust
kts
18/07:30pm 17.9 16.4 10.5 62 4.0 ENE 9 13 5 7 1016.5 1016.5 0.0
18/07:00pm 17.8 16.9 10.7 63 3.8 SSE 6 7 3 4 1016.5 1016.5 0.0
18/06:30pm 21.5 20.7 10.9 51 5.8 SE 6 11 3 6 1016.3 1016.3 0.0
18/06:00pm 22.9 21.7 10.3 45 6.9 SE 7 15 4 8 1016.0 1016.0 0.0
18/05:30pm 23.5 21.3 10.9 45 7.0 SE 13 20 7 11 1015.7 1015.7 0.0
18/05:00pm 23.7 20.1 10.0 42 7.5 SE 19 30 10 16 1015.4 1015.4 0.0
18/04:30pm 24.4 21.3 10.3 41 7.8 SE 17 30 9 16 1015.2 1015.2 0.0
18/04:00pm 24.2 20.6 10.5 42 7.6 ESE 20 32 11 17 1015.2 1015.2 0.0
18/03:30pm 24.6 21.8 11.2 43 7.5 SE 17 30 9 16 1015.4 1015.4 0.0
18/03:00pm 24.6 21.6 11.9 45 7.2 ESE 19 28 10 15 1015.7 1015.7 0.0
18/02:30pm 24.7 21.7 12.0 45 7.2 SE 19 35 10 19 1016.2 1016.2 0.0
18/02:00pm 25.0 22.0 12.6 46 7.1 ESE 20 32 11 17 1016.4 1016.4 0.0
18/01:30pm 24.1 20.3 12.4 48 6.7 ESE 24 43 13 23 1016.8 1016.8 0.0
18/01:00pm 24.1 21.1 12.4 48 6.7 SE 20 35 11 19 1017.3 1017.3 0.0
18/12:30pm 23.8 20.4 12.4 48 6.5 ESE 22 39 12 21 1017.7 1017.7 0.0
18/12:00pm 24.8 21.8 12.1 45 7.2 E 19 33 10 18 1018.1 1018.1 0.0
18/11:30am 24.3 20.8 10.2 41 7.8 ESE 19 32 10 17 1018.7 1018.7 0.0
18/11:00am 23.6 19.6 9.2 40 7.8 ESE 20 39 11 21 1019.2 1019.2 0.0
18/10:30am 23.7 20.0 9.3 40 7.8 ESE 19 30 10 16 1019.5 1019.5 0.0
18/10:00am 23.4 19.3 8.7 39 7.9 ESE 20 39 11 21 1019.9 1019.9 0.0
18/09:30am 23.7 20.2 8.6 38 8.0 E 17 30 9 16 1020.0 1020.0 0.0
18/09:00am 23.3 20.7 9.3 41 7.5 E 13 20 7 11 1019.9 1019.9 0.0
18/08:30am 22.4 20.3 8.1 40 7.5 ESE 9 17 5 9 1019.4 1019.4 0.0
18/08:00am 21.3 18.1 6.8 39 7.4 ESE 13 20 7 11 1019.1 1019.1 0.0
18/07:30am 20.4 17.5 6.4 40 7.0 ESE 11 20 6 11 1018.8 1018.8 0.0
18/07:00am 20.2 17.7 6.5 41 6.9 ESE 9 17 5 9 1018.5 1018.5 0.0
18/06:30am 20.4 17.9 6.4 40 7.0 ESE 9 17 5 9 1018.1 1018.1 0.0
18/06:00am 20.5 17.9 6.1 39 7.2 ESE 9 19 5 10 1018.0 1018.0 0.0
18/05:30am 20.6 18.1 6.5 40 7.1 ESE 9 17 5 9 1017.7 1017.7 0.0
18/05:00am 20.0 17.6 7.1 43 6.6 ESE 9 15 5 8 1017.5 1017.5 0.0
18/04:30am 20.5 18.3 7.8 44 6.5 ESE 9 19 5 10 1017.3 1017.3 0.0
18/04:00am 20.7 18.6 8.4 45 6.4 ESE 9 15 5 8 1017.2 1017.2 0.0
18/03:30am 20.4 18.3 8.1 45 6.4 ESE 9 17 5 9 1017.0 1017.0 0.0
18/03:00am 18.7 16.6 8.4 51 5.3 ESE 9 17 5 9 1016.9 1016.9 0.0
18/02:43am 15.9 13.9 10.0 68 3.1 SE 11 17 6 9 1016.8 1016.8 0.0
18/02:30am 10.9 9.4 9.2 89 0.8 SE 7 11 4 6 1016.9 1016.9 0.0
18/02:00am 10.9 9.0 9.2 89 0.8 E 9 11 5 6 1017.0 1017.0 0.0
18/01:30am 11.2 9.4 9.3 88 0.9 E 9 11 5 6 1017.1 1017.1 0.0
18/01:00am 11.4 9.6 9.5 88 1.0 - 9 11 5 6 1017.1 1017.1 0.0
18/12:30am 11.5 9.6 9.2 86 1.1 E 9 11 5 6 1017.2 1017.2 0.0
18/12:00am 11.8 10.0 9.5 86 1.2 - 9 11 5 6 1017.1 1017.1 0.0
 
Date/Time
CST
Temp
°C
App
Temp
°C
Dew
Point
°C
Rel
Hum
%
Delta-T
°C
Wind Press
QNH
hPa
Press
MSL
hPa
Rain since
9am
mm
Dir  Spd
km/h
Gust
km/h
Spd
kts
Gust
kts
17/11:30pm 11.9 10.1 9.3 84 1.3 ENE 9 11 5 6 1016.9 1016.9 0.0
17/11:00pm 12.2 10.3 9.2 82 1.5 ENE 9 9 5 5 1016.7 1016.7 0.0
17/10:30pm 12.9 11.5 9.4 79 1.8 ENE 7 9 4 5 1016.5 1016.5 0.0
17/10:00pm 13.4 11.6 9.5 77 2.0 ENE 9 11 5 6 1016.4 1016.4 0.0
17/09:30pm 14.1 12.3 9.5 74 2.4 E 9 11 5 6 1016.4 1016.4 0.0
17/09:00pm 14.3 12.5 9.5 73 2.5 E 9 11 5 6 1016.0 1016.0 0.0
17/08:30pm 15.3 13.1 9.4 68 3.0 E 11 13 6 7 1015.6 1015.6 0.0
17/08:00pm 14.5 13.0 9.1 70 2.8 E 7 11 4 6 1015.2 1015.2 0.0
17/07:30pm 15.8 13.9 9.0 64 3.5 E 9 9 5 5 1014.9 1014.9 0.0
17/07:00pm 17.7 16.7 8.8 56 4.6 ESE 4 9 2 5 1014.6 1014.6 0.0
17/06:30pm 22.8 22.6 8.9 41 7.4 CALM 0 0 0 0 1014.0 1014.0 0.0
17/06:00pm 25.3 23.9 7.4 32 9.4 ESE 4 7 2 4 1013.8 1013.8 0.0
17/05:30pm 26.0 23.6 7.1 30 10.0 ESE 9 13 5 7 1013.6 1013.6 0.0
17/05:00pm 26.1 22.8 6.2 28 10.3 ESE 13 20 7 11 1013.4 1013.4 0.0
17/04:30pm 26.6 23.5 7.1 29 10.3 ESE 13 22 7 12 1013.5 1013.5 0.0
17/04:00pm 26.8 23.3 7.3 29 10.4 SE 15 32 8 17 1013.6 1013.6 0.0
17/03:30pm 26.4 22.9 7.4 30 10.1 SSE 15 32 8 17 1013.9 1013.9 0.0
17/03:00pm 26.5 22.6 8.5 32 9.7 SSE 19 33 10 18 1014.2 1014.2 0.0
17/02:30pm 26.8 23.4 9.2 33 9.7 ESE 17 30 9 16 1014.4 1014.4 0.0
17/02:00pm 26.5 22.1 8.9 33 9.6 ESE 22 35 12 19 1014.6 1014.6 0.0
17/01:30pm 26.6 22.8 9.9 35 9.3 ESE 20 39 11 21 1015.0 1015.0 0.0
17/01:00pm 26.2 22.1 10.0 36 9.0 ESE 22 41 12 22 1015.4 1015.4 0.0
17/12:30pm 25.6 20.7 9.8 37 8.7 ESE 26 44 14 24 1015.9 1015.9 0.0
17/12:00pm 26.0 21.9 10.2 37 8.8 ESE 22 43 12 23 1016.6 1016.6 0.0
17/11:30am 24.9 19.9 9.6 38 8.4 E 26 44 14 24 1017.0 1017.0 0.0
17/11:00am 24.9 20.3 9.6 38 8.4 ESE 24 44 13 24 1017.3 1017.3 0.0
17/10:30am 25.4 21.2 9.7 37 8.6 ESE 22 41 12 22 1017.4 1017.4 0.0
17/10:00am 25.5 22.5 10.5 39 8.4 ESE 17 28 9 15 1017.8 1017.8 0.0
17/09:30am 25.0 21.5 10.8 41 7.9 ESE 20 37 11 20 1017.8 1017.8 0.0
17/09:00am 24.8 22.0 11.4 43 7.5 ESE 17 35 9 19 1017.8 1017.8 0.0
17/08:30am 24.3 21.3 11.9 45 7.0 ESE 19 32 10 17 1017.5 1017.5 0.0
17/08:00am 23.6 20.9 11.6 47 6.8 ESE 17 39 9 21 1017.1 1017.1 0.0
17/07:30am 22.8 20.3 10.9 47 6.6 ESE 15 22 8 12 1016.6 1016.6 0.0
17/07:00am 22.6 20.3 10.4 46 6.7 ESE 13 26 7 14 1016.3 1016.3 0.0
17/06:30am 22.4 20.2 10.9 48 6.3 ESE 13 19 7 10 1016.1 1016.1 0.0
17/06:00am 21.9 18.9 10.7 49 6.1 ESE 17 35 9 19 1015.8 1015.8 0.0
17/05:30am 18.9 19.8 17.6 92 0.8 ESE 9 15 5 8 1015.6 1015.6 0.0
17/05:00am 19.3 20.6 18.5 95 0.5 E 9 13 5 7 1015.4 1015.4 0.0
17/04:30am 18.8 19.9 18.1 96 0.4 E 9 11 5 6 1015.1 1015.1 0.0
17/04:00am 19.7 21.3 19.2 97 0.3 E 9 13 5 7 1014.9 1014.9 0.0
17/03:30am 20.2 22.1 19.7 97 0.3 E 9 13 5 7 1015.0 1015.0 0.0
17/03:00am 19.7 21.2 19.7 100 0.0 E 11 20 6 11 1015.1 1015.1 0.0
17/02:30am 17.2 18.2 16.9 98 0.2 ESE 7 9 4 5 1014.9 1014.9 0.0
17/02:00am 17.4 18.4 16.9 97 0.3 ESE 7 9 4 5 1015.0 1015.0 0.0
17/01:30am 17.7 19.0 17.2 97 0.3 SE 6 7 3 4 1015.2 1015.2 0.0
17/01:00am 17.9 19.3 17.4 97 0.3 SE 6 6 3 3 1015.4 1015.4 0.0
17/12:30am 18.1 19.6 17.5 96 0.4 SE 6 7 3 4 1015.4 1015.4 0.0
17/12:00am 18.3 19.8 17.7 96 0.4 SE 6 7 3 4 1015.4 1015.4 0.0
 
Date/Time
CST
Temp
°C
App
Temp
°C
Dew
Point
°C
Rel
Hum
%
Delta-T
°C
Wind Press
QNH
hPa
Press
MSL
hPa
Rain since
9am
mm
Dir  Spd
km/h
Gust
km/h
Spd
kts
Gust
kts
16/11:30pm 18.6 20.0 17.9 96 0.4 SE 7 7 4 4 1015.4 1015.4 0.0
16/11:00pm 18.7 20.1 17.9 95 0.5 SE 7 7 4 4 1015.4 1015.4 0.0
16/10:30pm 19.0 20.5 18.0 94 0.6 SE 7 7 4 4 1015.3 1015.3 0.0
16/10:00pm 19.4 21.1 18.4 94 0.6 SE 7 7 4 4 1015.2 1015.2 0.0
16/09:30pm 19.8 21.7 18.6 93 0.7 SE 6 7 3 4 1015.3 1015.3 0.0
16/09:00pm 20.2 22.2 18.7 91 0.9 SSE 6 7 3 4 1015.0 1015.0 0.0
16/08:30pm 20.6 22.6 18.7 89 1.2 SSE 6 7 3 4 1014.9 1014.9 0.0
16/08:00pm 21.4 23.4 19.1 87 1.5 SSE 7 9 4 5 1014.5 1014.5 0.0
16/07:30pm 22.3 25.7 19.3 83 1.9 CALM 0 0 0 0 1013.9 1013.9 0.0
16/07:00pm 24.2 27.7 19.5 75 3.0 CALM 0 0 0 0 1013.6 1013.6 0.0
16/06:30pm 25.9 29.6 20.0 70 3.8 CALM 0 0 0 0 1013.5 1013.5 0.0
16/06:00pm 26.5 29.9 20.1 68 4.2 ESE 2 9 1 5 1013.1 1013.1 0.0
16/05:30pm 26.9 29.8 19.8 65 4.6 SSE 4 9 2 5 1012.8 1012.8 0.0
16/05:00pm 27.4 29.6 19.5 62 5.1 SSE 7 11 4 6 1012.6 1012.6 0.0
16/04:30pm 27.7 29.6 19.8 62 5.1 SE 9 13 5 7 1012.2 1012.2 0.0
16/04:00pm 28.2 29.4 20.0 61 5.4 SE 13 20 7 11 1012.4 1012.4 0.0
16/03:30pm 28.0 28.6 19.5 60 5.5 SSE 15 24 8 13 1012.5 1012.5 0.0
16/03:00pm 28.5 29.4 20.0 60 5.6 S 15 22 8 12 1012.6 1012.6 0.0
16/02:30pm 28.4 28.9 19.3 57 5.9 S 15 24 8 13 1012.8 1012.8 0.0
16/02:00pm 28.7 29.2 19.3 56 6.1 SSE 15 24 8 13 1013.1 1013.1 0.0
16/01:30pm 28.8 29.6 19.1 55 6.3 SSE 13 22 7 12 1013.5 1013.5 0.0
16/01:00pm 28.2 30.1 19.7 60 5.5 SSE 9 15 5 8 1013.9 1013.9 0.0
16/12:30pm 28.4 30.9 19.1 57 6.0 NNW 4 15 2 8 1014.3 1014.3 0.0
16/12:00pm 28.3 30.7 20.8 63 5.0 NNW 9 11 5 6 1014.9 1014.9 0.0
16/11:30am 28.7 30.8 20.2 60 5.6 NE 9 15 5 8 1015.2 1015.2 0.0
16/11:00am 27.9 29.9 20.7 65 4.8 NE 11 17 6 9 1015.6 1015.6 0.0
16/10:30am 27.4 29.9 21.7 71 3.8 NE 11 17 6 9 1015.8 1015.8 0.0
16/10:00am 27.7 30.1 21.5 69 4.1 NE 11 17 6 9 1016.0 1016.0 0.0
16/09:30am 26.5 29.2 21.3 73 3.4 NNE 9 11 5 6 1016.0 1016.0 0.0
16/09:00am 25.5 28.7 21.2 77 2.8 E 6 9 3 5 1015.9 1015.9 0.0
16/08:30am 23.9 27.1 21.2 85 1.8 ENE 6 9 3 5 1015.6 1015.6 0.0
16/08:00am 22.4 25.7 21.4 94 0.7 E 6 7 3 4 1015.1 1015.1 0.0
16/07:30am 21.3 23.6 20.6 96 0.5 E 9 11 5 6 1014.8 1014.8 0.0
16/07:00am 20.1 22.6 19.8 98 0.2 ESE 6 7 3 4 1014.3 1014.3 0.0
16/06:30am 19.9 22.3 19.6 98 0.2 S 6 7 3 4 1014.2 1014.2 0.0
16/06:00am 19.5 21.7 19.2 98 0.2 S 6 7 3 4 1014.1 1014.1 0.0
16/05:30am 19.3 21.4 19.0 98 0.2 S 6 7 3 4 1014.2 1014.2 0.0
16/05:00am 19.2 21.3 18.9 98 0.2 S 6 7 3 4 1014.1 1014.1 0.0
16/04:30am 19.2 21.2 18.7 97 0.3 S 6 7 3 4 1014.1 1014.1 0.0
16/04:00am 19.3 21.3 18.8 97 0.3 S 6 7 3 4 1014.1 1014.1 0.0
16/03:30am 19.5 21.6 19.0 97 0.3 S 6 7 3 4 1014.1 1014.1 0.0
16/03:00am 19.5 21.5 18.8 96 0.4 SSW 6 7 3 4 1014.1 1014.1 0.0
16/02:30am 19.8 22.0 19.3 97 0.3 SSW 6 7 3 4 1014.1 1014.1 0.0
16/02:00am 19.4 21.4 18.7 96 0.4 SSW 6 7 3 4 1013.9 1013.9 0.0
16/01:30am 19.5 21.9 18.8 96 0.4 WSW 4 6 2 3 1014.1 1014.1 0.0
16/01:00am 20.0 22.2 19.3 96 0.4 WSW 6 6 3 3 1014.0 1014.0 0.0
16/12:30am 19.3 22.3 18.5 95 0.5 CALM 0 0 0 0 1014.0 1014.0 0.0
16/12:00am 19.5 22.5 18.5 94 0.6 CALM 0 0 0 0 1013.9 1013.9 0.0
 
Date/Time
CST
Temp
°C
App
Temp
°C
Dew
Point
°C
Rel
Hum
%
Delta-T
°C
Wind Press
QNH
hPa
Press
MSL
hPa
Rain since
9am
mm
Dir  Spd
km/h
Gust
km/h
Spd
kts
Gust
kts
15/11:30pm 19.7 22.7 18.5 93 0.7 CALM 0 0 0 0 1013.8 1013.8 0.0
15/11:00pm 20.1 22.9 18.8 92 0.8 WSW 2 6 1 3 1013.7 1013.7 0.0
15/10:30pm 20.8 24.1 19.1 90 1.1 CALM 0 0 0 0 1013.7 1013.7 0.0
15/10:00pm 21.3 24.8 19.6 90 1.1 CALM 0 0 0 0 1013.6 1013.6 0.0
15/09:30pm 21.3 24.2 19.0 87 1.5 WNW 2 7 1 4 1013.4 1013.4 0.0
15/09:00pm 22.6 24.9 19.8 84 1.8 WNW 7 11 4 6 1013.0 1013.0 0.0
15/08:30pm 24.8 27.0 20.3 76 2.9 WNW 9 11 5 6 1012.4 1012.4 0.0
15/08:00pm 25.1 27.3 20.4 75 3.1 WNW 9 11 5 6 1011.8 1011.8 0.0

Latest Capital City Observations: Canberra | Sydney | Melbourne | Brisbane | Adelaide | Perth | Hobart | Darwin

Other formats

Comma delimited format used in spreadsheet applications
http://www.bom.gov.au/fwo/IDD60901/IDD60901.94122.axf

JavaScript Object Notation format (JSON) in row-major order
http://www.bom.gov.au/fwo/IDD60901/IDD60901.94122.json

Data quality

Most of these data are generated automatically and are frequently updated. Quality checks on data are not normally performed. It is possible for incorrect values to appear. Refer to information at About Latest Weather Observations and please check the disclaimer before using these data.